Time;durP1;ratioP1;P1;durP2;ratioP2;P2;SDS_P1;SDS_P2;PMS_P1;PMS_P2;Temp;Humidity;BMP_temperature;BMP_pressure;BME280_temperature;BME280_humidity;BME280_pressure;Samples;Min_cycle;Max_cycle;Signal;HPM_P1;HPM_P2
2021/12/21 00:01:32;;;;;;;;;;;18.50;99.90;;;;;;4996532;28;1456;-54
2021/12/21 00:03:58;;;;;;;;;;;18.40;99.90;;;;;;4994053;28;1185;-53
2021/12/21 00:06:25;;;;;;;;;;;18.20;99.90;;;;;;4996164;28;1331;-54
2021/12/21 00:08:51;;;;;;;;;;;18.10;99.90;;;;;;4997780;28;1969;-52
2021/12/21 00:11:19;;;;;;;;;;;18.00;99.90;;;;;;4997550;28;1808;-54
2021/12/21 00:13:58;;;;;;;;;;;18.00;99.90;;;;;;4997616;28;925;-54
2021/12/21 00:19:41;;;;;;;;;;;17.70;99.90;;;;;;4927600;28;1182;-53
2021/12/21 00:23:18;;;;;;;;;;;17.60;99.90;;;;;;4995952;28;911;-53
2021/12/21 00:24:55;;;;;;;;;;;17.50;99.90;;;;;;4983564;28;1534;-52
2021/12/21 00:27:22;;;;;;;;;;;17.40;99.90;;;;;;4996963;28;921;-53
2021/12/21 00:29:49;;;;;;;;;;;17.30;99.90;;;;;;4997071;28;1906;-53
2021/12/21 00:32:15;;;;;;;;;;;17.20;99.90;;;;;;4996887;28;1156;-53
2021/12/21 00:34:42;;;;;;;;;;;17.10;99.90;;;;;;4997077;28;916;-53
2021/12/21 00:37:10;;;;;;;;;;;17.10;99.90;;;;;;4994835;28;852;-53
2021/12/21 00:39:36;;;;;;;;;;;17.00;99.90;;;;;;4979707;28;1231;-53
2021/12/21 00:42:02;;;;;;;;;;;17.00;99.90;;;;;;4997054;28;936;-53
2021/12/21 00:44:29;;;;;;;;;;;16.90;99.90;;;;;;4996779;28;1081;-53
2021/12/21 00:46:55;;;;;;;;;;;16.90;99.90;;;;;;4994869;28;889;-53
2021/12/21 00:49:23;;;;;;;;;;;16.80;99.90;;;;;;4996635;28;1906;-53
2021/12/21 00:51:50;;;;;;;;;;;16.80;99.90;;;;;;4996553;28;900;-53
2021/12/21 00:54:17;;;;;;;;;;;16.70;99.90;;;;;;4996767;28;843;-53
2021/12/21 00:56:45;;;;;;;;;;;16.70;99.90;;;;;;4996925;28;873;-53
2021/12/21 00:59:15;;;;;;;;;;;16.60;99.90;;;;;;4996433;28;852;-53
2021/12/21 01:01:42;;;;;;;;;;;16.60;99.90;;;;;;4996767;28;804;-53
2021/12/21 01:04:18;;;;;;;;;;;16.50;99.90;;;;;;4996331;28;1378;-53
2021/12/21 01:06:59;;;;;;;;;;;16.50;99.90;;;;;;4993036;28;922;-53
2021/12/21 01:09:43;;;;;;;;;;;16.40;99.90;;;;;;4996061;28;1953;-53
2021/12/21 01:12:14;;;;;;;;;;;16.40;99.90;;;;;;4996037;28;964;-53
2021/12/21 01:17:36;;;;;;;;;;;16.30;99.90;;;;;;4996487;28;845;-53
2021/12/21 01:20:10;;;;;;;;;;;16.20;99.90;;;;;;4979265;28;1069;-53
2021/12/21 01:25:55;;;;;;;;;;;16.10;99.90;;;;;;4996236;28;869;-52
2021/12/21 01:28:39;;;;;;;;;;;16.10;99.90;;;;;;4986391;28;1200;-53
2021/12/21 01:31:13;;;;;;;;;;;16.00;99.90;;;;;;4991259;28;1015;-52
2021/12/21 01:33:57;;;;;;;;;;;16.00;99.90;;;;;;4993253;28;895;-52
2021/12/21 01:42:07;;;;;;;;;;;15.70;99.90;;;;;;4996250;28;859;-51
2021/12/21 01:49:50;;;;;;;;;;;15.60;99.90;;;;;;4992372;28;1968;-53
2021/12/21 01:52:24;;;;;;;;;;;15.60;99.90;;;;;;4996392;28;743;-53
2021/12/21 01:54:51;;;;;;;;;;;15.60;99.90;;;;;;4996109;28;1763;-52
2021/12/21 01:57:37;;;;;;;;;;;15.60;99.90;;;;;;4994547;28;1260;-52
2021/12/21 02:00:05;;;;;;;;;;;15.50;99.90;;;;;;4996138;28;1327;-52
2021/12/21 02:02:31;;;;;;;;;;;15.50;99.90;;;;;;4995513;28;826;-53
2021/12/21 02:04:58;;;;;;;;;;;15.50;99.90;;;;;;4995134;28;1111;-60
2021/12/21 02:07:25;;;;;;;;;;;15.40;99.90;;;;;;4992496;28;1338;-52
2021/12/21 02:09:54;;;;;;;;;;;15.40;99.90;;;;;;4996551;28;1906;-52
2021/12/21 02:12:21;;;;;;;;;;;15.30;99.90;;;;;;4998705;28;1060;-51
2021/12/21 02:14:53;;;;;;;;;;;15.30;99.90;;;;;;4998647;28;802;-52
2021/12/21 02:23:10;;;;;;;;;;;15.20;99.90;;;;;;4999507;28;890;-53
2021/12/21 02:25:55;;;;;;;;;;;15.20;99.90;;;;;;4998943;28;842;-53
2021/12/21 02:30:54;;;;;;;;;;;15.10;99.90;;;;;;4999378;28;848;-53
2021/12/21 02:33:22;;;;;;;;;;;15.10;99.90;;;;;;4982673;28;892;-52
2021/12/21 02:35:51;;;;;;;;;;;15.00;99.90;;;;;;4966279;28;979;-53
2021/12/21 02:38:18;;;;;;;;;;;15.00;99.90;;;;;;4948087;28;955;-54
2021/12/21 02:40:44;;;;;;;;;;;15.00;99.90;;;;;;4981567;28;946;-52
2021/12/21 02:43:10;;;;;;;;;;;14.90;99.90;;;;;;4981894;28;924;-51
2021/12/21 02:45:38;;;;;;;;;;;14.80;99.90;;;;;;4999160;28;838;-52
2021/12/21 02:48:06;;;;;;;;;;;14.70;99.90;;;;;;4998663;28;877;-51
2021/12/21 02:50:33;;;;;;;;;;;14.80;99.90;;;;;;4999590;28;1899;-52
2021/12/21 02:53:00;;;;;;;;;;;14.80;99.90;;;;;;4999147;28;854;-53
2021/12/21 02:55:28;;;;;;;;;;;14.80;99.90;;;;;;4998812;28;881;-53
2021/12/21 02:57:57;;;;;;;;;;;14.80;99.90;;;;;;4999081;28;900;-53
2021/12/21 03:00:25;;;;;;;;;;;14.70;99.90;;;;;;4998272;28;936;-53
2021/12/21 03:02:53;;;;;;;;;;;14.80;99.90;;;;;;4997840;28;911;-53
2021/12/21 03:05:22;;;;;;;;;;;14.70;99.90;;;;;;4998479;28;1241;-53
2021/12/21 03:08:06;;;;;;;;;;;14.70;99.90;;;;;;4998415;28;877;-53
2021/12/21 03:10:32;;;;;;;;;;;14.70;99.90;;;;;;4998558;28;1968;-52
2021/12/21 03:15:45;;;;;;;;;;;14.60;99.90;;;;;;4977842;28;1004;-53
2021/12/21 03:18:11;;;;;;;;;;;14.60;99.90;;;;;;4977637;28;1049;-54
2021/12/21 03:20:37;;;;;;;;;;;14.60;99.90;;;;;;4976158;28;945;-52
2021/12/21 03:23:03;;;;;;;;;;;14.50;99.90;;;;;;4977060;28;962;-51
2021/12/21 03:25:29;;;;;;;;;;;14.50;99.90;;;;;;4976357;28;871;-51
2021/12/21 03:27:56;;;;;;;;;;;14.50;99.90;;;;;;4977096;28;928;-51
2021/12/21 03:30:25;;;;;;;;;;;14.50;99.90;;;;;;4977346;28;1891;-51
2021/12/21 03:32:53;;;;;;;;;;;14.50;99.90;;;;;;4976990;28;994;-51
2021/12/21 03:35:19;;;;;;;;;;;14.50;99.90;;;;;;4977189;28;899;-51
2021/12/21 03:37:46;;;;;;;;;;;14.40;99.90;;;;;;4961103;28;951;-51
2021/12/21 03:40:12;;;;;;;;;;;14.40;99.90;;;;;;4976913;28;905;-51
2021/12/21 03:42:40;;;;;;;;;;;14.40;99.90;;;;;;4976310;28;915;-51
2021/12/21 03:45:08;;;;;;;;;;;14.40;99.90;;;;;;4976766;28;925;-52
2021/12/21 03:47:34;;;;;;;;;;;14.40;99.90;;;;;;4977055;28;945;-52
2021/12/21 03:50:04;;;;;;;;;;;14.30;99.90;;;;;;4983772;28;1894;-51
2021/12/21 03:52:30;;;;;;;;;;;14.10;99.90;;;;;;4997642;28;902;-52
2021/12/21 03:55:00;;;;;;;;;;;14.00;99.90;;;;;;4997877;28;911;-52
2021/12/21 03:57:28;;;;;;;;;;;14.00;99.90;;;;;;4994855;28;1155;-52
2021/12/21 03:59:56;;;;;;;;;;;14.10;99.90;;;;;;4997905;28;1062;-52
2021/12/21 04:02:25;;;;;;;;;;;14.10;99.90;;;;;;4996775;28;981;-51
2021/12/21 04:04:53;;;;;;;;;;;14.10;99.90;;;;;;4996098;28;1178;-52
2021/12/21 04:07:20;;;;;;;;;;;14.10;99.90;;;;;;4980942;28;961;-52
2021/12/21 04:09:46;;;;;;;;;;;14.10;99.90;;;;;;4997421;28;1976;-51
2021/12/21 04:12:13;;;;;;;;;;;14.10;99.90;;;;;;4998742;28;861;-52
2021/12/21 04:14:42;;;;;;;;;;;14.10;99.90;;;;;;4982291;28;914;-52
2021/12/21 04:17:16;;;;;;;;;;;14.10;99.90;;;;;;4998802;28;859;-52
2021/12/21 04:19:42;;;;;;;;;;;14.10;99.90;;;;;;4949705;28;1916;-53
2021/12/21 04:22:10;;;;;;;;;;;14.00;99.90;;;;;;4997206;28;798;-54
2021/12/21 04:24:38;;;;;;;;;;;14.10;99.90;;;;;;4997312;28;889;-53
2021/12/21 04:27:05;;;;;;;;;;;14.00;99.90;;;;;;4978950;28;947;-55
2021/12/21 04:29:32;;;;;;;;;;;14.00;99.90;;;;;;4997529;28;1960;-55
2021/12/21 04:31:58;;;;;;;;;;;14.00;99.90;;;;;;4979448;28;947;-53
2021/12/21 04:34:23;;;;;;;;;;;14.00;99.90;;;;;;4997028;28;913;-53
2021/12/21 04:36:50;;;;;;;;;;;14.00;99.90;;;;;;4996678;28;841;-53
2021/12/21 04:39:44;;;;;;;;;;;14.00;99.90;;;;;;4996609;28;860;-55
2021/12/21 04:42:05;;;;;;;;;;;13.90;99.90;;;;;;4996970;28;1533;-53
2021/12/21 04:44:31;;;;;;;;;;;13.90;99.90;;;;;;4975976;28;1028;-53
2021/12/21 04:46:57;;;;;;;;;;;13.90;99.90;;;;;;4976042;28;1232;-53
2021/12/21 04:49:23;;;;;;;;;;;13.90;99.90;;;;;;4973733;28;1902;-53
2021/12/21 04:51:49;;;;;;;;;;;13.90;99.90;;;;;;4975379;28;881;-53
2021/12/21 04:54:15;;;;;;;;;;;13.90;99.90;;;;;;4974911;28;1030;-53
2021/12/21 04:56:42;;;;;;;;;;;13.90;99.90;;;;;;4975161;28;918;-53
2021/12/21 04:59:09;;;;;;;;;;;13.80;99.90;;;;;;4959652;28;1235;-53
2021/12/21 05:01:38;;;;;;;;;;;13.70;99.90;;;;;;4975555;28;973;-53
2021/12/21 05:04:04;;;;;;;;;;;13.70;99.90;;;;;;4975646;28;968;-53
2021/12/21 05:06:31;;;;;;;;;;;13.70;99.90;;;;;;4975156;28;1459;-53
2021/12/21 05:09:39;;;;;;;;;;;13.80;99.90;;;;;;4943276;28;1910;-53
2021/12/21 05:11:49;;;;;;;;;;;13.80;99.90;;;;;;4971259;28;1127;-53
2021/12/21 05:14:15;;;;;;;;;;;13.80;99.90;;;;;;4975166;28;849;-53
2021/12/21 05:16:42;;;;;;;;;;;13.80;99.90;;;;;;4975575;28;937;-53
2021/12/21 05:19:09;;;;;;;;;;;13.80;99.90;;;;;;4975719;28;917;-53
2021/12/21 05:21:35;;;;;;;;;;;13.80;99.90;;;;;;4982837;28;839;-52
2021/12/21 05:24:03;;;;;;;;;;;13.70;99.90;;;;;;4996371;28;882;-51
2021/12/21 05:26:29;;;;;;;;;;;13.80;99.90;;;;;;4995884;28;887;-52
2021/12/21 05:28:56;;;;;;;;;;;13.70;99.90;;;;;;4995216;28;1898;-51
2021/12/21 05:31:22;;;;;;;;;;;13.70;99.90;;;;;;4962692;28;924;-51
2021/12/21 05:33:51;;;;;;;;;;;13.70;99.90;;;;;;4995132;28;838;-52
2021/12/21 05:36:19;;;;;;;;;;;13.80;99.90;;;;;;4996312;28;865;-52
2021/12/21 05:38:49;;;;;;;;;;;13.80;99.90;;;;;;4996313;28;849;-50
2021/12/21 05:41:24;;;;;;;;;;;13.80;99.90;;;;;;4995846;28;874;-51
2021/12/21 05:43:50;;;;;;;;;;;13.80;99.90;;;;;;4997289;28;882;-52
2021/12/21 05:46:17;;;;;;;;;;;13.80;99.90;;;;;;5000187;28;831;-51
2021/12/21 05:48:45;;;;;;;;;;;13.90;99.90;;;;;;5000261;28;1958;-51
2021/12/21 05:51:13;;;;;;;;;;;13.90;99.90;;;;;;5000242;28;854;-51
2021/12/21 05:53:41;;;;;;;;;;;14.00;99.90;;;;;;4999687;28;929;-51
2021/12/21 05:56:09;;;;;;;;;;;14.10;99.90;;;;;;4998699;28;1260;-51
2021/12/21 05:58:35;;;;;;;;;;;14.20;99.90;;;;;;5000137;28;893;-51
2021/12/21 06:01:02;;;;;;;;;;;14.30;99.90;;;;;;5000226;28;1038;-55
2021/12/21 06:03:30;;;;;;;;;;;14.40;99.90;;;;;;4997372;28;927;-54
2021/12/21 06:05:56;;;;;;;;;;;14.50;99.90;;;;;;4999481;28;997;-53
2021/12/21 06:08:24;;;;;;;;;;;14.70;99.90;;;;;;4999861;28;960;-54
2021/12/21 06:10:53;;;;;;;;;;;14.80;99.90;;;;;;4999497;28;1961;-54
2021/12/21 06:13:46;;;;;;;;;;;14.90;99.90;;;;;;4999734;28;885;-52
2021/12/21 06:26:33;;;;;;;;;;;15.40;99.90;;;;;;4999215;28;948;-52
2021/12/21 06:29:01;;;;;;;;;;;15.50;99.90;;;;;;4999474;28;1907;-51
2021/12/21 06:31:27;;;;;;;;;;;15.60;99.90;;;;;;4999597;28;893;-51
2021/12/21 06:33:53;;;;;;;;;;;15.60;99.90;;;;;;4981877;28;887;-51
2021/12/21 06:36:21;;;;;;;;;;;15.60;99.90;;;;;;4999195;28;932;-51
2021/12/21 06:38:49;;;;;;;;;;;15.70;99.90;;;;;;4996910;28;870;-51
2021/12/21 06:41:15;;;;;;;;;;;15.70;99.90;;;;;;4998833;28;806;-51
2021/12/21 06:43:42;;;;;;;;;;;15.80;99.90;;;;;;4999263;28;897;-52
2021/12/21 06:51:47;;;;;;;;;;;15.90;99.90;;;;;;4999208;28;917;-52
2021/12/21 06:54:15;;;;;;;;;;;15.90;99.90;;;;;;4998772;28;1260;-51
2021/12/21 06:56:42;;;;;;;;;;;15.90;99.90;;;;;;4998830;28;940;-51
2021/12/21 06:59:10;;;;;;;;;;;15.90;99.90;;;;;;4964192;28;973;-52
2021/12/21 07:01:40;;;;;;;;;;;15.90;99.90;;;;;;4998990;28;813;-51
2021/12/21 07:04:07;;;;;;;;;;;15.90;99.90;;;;;;4981636;28;1061;-52
2021/12/21 07:06:39;;;;;;;;;;;15.80;99.90;;;;;;4998564;28;1723;-53
2021/12/21 07:09:35;;;;;;;;;;;15.80;99.90;;;;;;4980370;28;1906;-52
2021/12/21 07:12:14;;;;;;;;;;;15.80;99.90;;;;;;4997966;28;1185;-53
2021/12/21 07:18:29;;;;;;;;;;;15.80;99.90;;;;;;4998593;28;908;-52
2021/12/21 07:20:21;;;;;;;;;;;15.80;99.90;;;;;;4985625;28;1427;-52
2021/12/21 07:22:48;;;;;;;;;;;15.80;99.90;;;;;;4998483;28;881;-51
2021/12/21 07:25:17;;;;;;;;;;;15.80;99.90;;;;;;4996174;28;869;-52
2021/12/21 07:27:45;;;;;;;;;;;15.80;99.90;;;;;;4995021;28;901;-52
2021/12/21 07:30:14;;;;;;;;;;;15.90;99.90;;;;;;4996223;28;1962;-52
2021/12/21 07:32:40;;;;;;;;;;;15.90;99.90;;;;;;4948885;28;1382;-53
2021/12/21 07:35:06;;;;;;;;;;;15.90;99.90;;;;;;4995959;28;819;-51
2021/12/21 07:37:32;;;;;;;;;;;15.90;99.90;;;;;;4997820;28;899;-52
2021/12/21 07:39:59;;;;;;;;;;;15.90;99.90;;;;;;4997717;28;930;-53
2021/12/21 07:42:25;;;;;;;;;;;15.90;99.90;;;;;;4998130;28;794;-51
2021/12/21 07:44:52;;;;;;;;;;;15.90;99.90;;;;;;4997659;28;921;-52
2021/12/21 07:47:38;;;;;;;;;;;15.90;99.90;;;;;;4993187;28;1038;-53
2021/12/21 07:50:05;;;;;;;;;;;15.90;99.90;;;;;;4996190;28;1965;-54
2021/12/21 07:52:31;;;;;;;;;;;15.90;99.90;;;;;;4989655;28;1414;-54
2021/12/21 07:54:58;;;;;;;;;;;15.90;99.90;;;;;;4996551;28;1220;-52
2021/12/21 07:57:24;;;;;;;;;;;15.90;99.90;;;;;;4997134;28;1018;-52
2021/12/21 07:59:50;;;;;;;;;;;16.00;99.90;;;;;;4994576;28;1326;-52
2021/12/21 08:02:18;;;;;;;;;;;16.00;99.90;;;;;;4998252;28;858;-52
2021/12/21 08:04:44;;;;;;;;;;;16.00;99.90;;;;;;4996269;28;1229;-51
2021/12/21 08:07:17;;;;;;;;;;;16.00;99.90;;;;;;4996157;28;935;-52
2021/12/21 08:09:47;;;;;;;;;;;16.00;99.90;;;;;;4995953;28;1906;-52
2021/12/21 08:12:16;;;;;;;;;;;16.10;99.90;;;;;;4993079;28;1142;-52
2021/12/21 08:14:48;;;;;;;;;;;16.10;99.90;;;;;;4995846;28;1053;-53
2021/12/21 08:17:19;;;;;;;;;;;16.00;99.90;;;;;;4979877;28;907;-52
2021/12/21 08:19:46;;;;;;;;;;;16.00;99.90;;;;;;4972628;28;1154;-52
2021/12/21 08:22:14;;;;;;;;;;;16.00;99.90;;;;;;4984946;28;1846;-52
2021/12/21 08:24:42;;;;;;;;;;;16.00;99.90;;;;;;4977193;28;1249;-51
2021/12/21 08:27:10;;;;;;;;;;;16.10;99.90;;;;;;4979504;28;1411;-52
2021/12/21 08:29:37;;;;;;;;;;;16.10;99.90;;;;;;4992885;28;1923;-52
2021/12/21 08:32:03;;;;;;;;;;;16.20;99.90;;;;;;4996418;28;847;-52
2021/12/21 08:34:29;;;;;;;;;;;16.20;99.90;;;;;;4995685;28;899;-51
2021/12/21 08:36:55;;;;;;;;;;;16.30;99.90;;;;;;4996294;28;886;-52
2021/12/21 08:39:23;;;;;;;;;;;16.40;99.90;;;;;;4996327;28;1173;-51
2021/12/21 08:41:56;;;;;;;;;;;16.50;99.90;;;;;;4979047;28;965;-53
2021/12/21 08:44:23;;;;;;;;;;;16.60;99.90;;;;;;4995376;28;908;-51
2021/12/21 08:46:52;;;;;;;;;;;16.60;99.90;;;;;;4996152;28;881;-52
2021/12/21 08:49:19;;;;;;;;;;;16.60;99.90;;;;;;4995233;28;1975;-51
2021/12/21 08:51:46;;;;;;;;;;;16.60;99.90;;;;;;4996085;28;820;-53
2021/12/21 08:54:14;;;;;;;;;;;16.70;99.90;;;;;;4962389;28;927;-53
2021/12/21 08:56:40;;;;;;;;;;;16.70;99.90;;;;;;4959574;28;1230;-52
2021/12/21 08:59:08;;;;;;;;;;;16.60;99.90;;;;;;4995961;28;857;-53
2021/12/21 09:01:34;;;;;;;;;;;16.60;99.90;;;;;;4979107;28;1366;-53
2021/12/21 09:04:00;;;;;;;;;;;16.50;99.90;;;;;;4991354;28;1041;-53
2021/12/21 09:06:27;;;;;;;;;;;16.50;99.90;;;;;;4775169;28;6421975;-56
2021/12/21 09:08:54;;;;;;;;;;;16.50;99.90;;;;;;4996754;28;889;-52
2021/12/21 09:11:21;;;;;;;;;;;16.50;99.90;;;;;;4996384;28;1972;-52
2021/12/21 09:13:48;;;;;;;;;;;16.50;99.90;;;;;;4996411;28;916;-52
2021/12/21 09:16:17;;;;;;;;;;;16.50;99.90;;;;;;4996560;28;818;-53
2021/12/21 09:18:45;;;;;;;;;;;16.50;99.90;;;;;;4977932;28;2444;-53
2021/12/21 09:21:11;;;;;;;;;;;16.50;99.90;;;;;;4995741;28;1064;-52
2021/12/21 09:23:57;;;;;;;;;;;16.60;99.90;;;;;;4967749;28;1918;-53
2021/12/21 09:26:43;;;;;;;;;;;16.70;99.90;;;;;;4995741;28;1618;-53
2021/12/21 09:29:29;;;;;;;;;;;16.70;99.90;;;;;;4982156;28;1984;-52
2021/12/21 09:32:18;;;;;;;;;;;16.70;99.90;;;;;;4980699;28;1601;-52
2021/12/21 09:35:04;;;;;;;;;;;16.70;99.90;;;;;;4955352;28;1430;-52
2021/12/21 09:37:52;;;;;;;;;;;16.80;99.90;;;;;;4982253;28;1458;-52
2021/12/21 09:40:39;;;;;;;;;;;16.90;99.90;;;;;;4995430;28;1414;-52
2021/12/21 09:43:25;;;;;;;;;;;17.00;99.90;;;;;;4980889;28;1665;-52
2021/12/21 09:46:11;;;;;;;;;;;17.20;99.90;;;;;;4995863;28;1406;-51
2021/12/21 09:48:57;;;;;;;;;;;17.30;99.90;;;;;;4993937;28;1378;-51
2021/12/21 09:51:43;;;;;;;;;;;17.50;99.90;;;;;;4983875;28;1722;-51
2021/12/21 09:54:30;;;;;;;;;;;17.60;99.90;;;;;;4978310;28;1386;-52
2021/12/21 09:57:17;;;;;;;;;;;17.60;99.90;;;;;;4995461;28;1467;-51
2021/12/21 10:00:05;;;;;;;;;;;17.70;99.90;;;;;;4995308;28;1568;-51
2021/12/21 10:02:52;;;;;;;;;;;17.70;99.90;;;;;;4966670;23;2080;-53
2021/12/21 10:05:40;;;;;;;;;;;17.70;99.90;;;;;;5052988;28;1416;-53
2021/12/21 10:08:30;;;;;;;;;;;17.80;99.90;;;;;;5048639;28;1404;-54
2021/12/21 10:11:21;;;;;;;;;;;17.80;99.90;;;;;;5048593;28;2170;-54
2021/12/21 10:14:07;;;;;;;;;;;17.80;99.90;;;;;;5050844;28;1466;-54
2021/12/21 10:17:00;;;;;;;;;;;17.90;99.90;;;;;;5051310;28;1669;-54
2021/12/21 10:19:48;;;;;;;;;;;17.90;99.90;;;;;;5050448;28;1562;-53
2021/12/21 10:22:34;;;;;;;;;;;17.80;99.90;;;;;;5054723;28;1506;-54
2021/12/21 10:25:26;;;;;;;;;;;17.60;99.90;;;;;;5053668;28;1435;-53
2021/12/21 10:28:24;;;;;;;;;;;17.20;99.90;;;;;;5046464;28;1416;-52
2021/12/21 10:31:14;;;;;;;;;;;16.80;99.90;;;;;;5051732;28;1969;-52
2021/12/21 10:34:01;;;;;;;;;;;16.40;99.90;;;;;;5050074;28;1527;-52
2021/12/21 10:36:49;;;;;;;;;;;16.20;99.90;;;;;;5053415;28;1429;-53
2021/12/21 10:39:36;;;;;;;;;;;16.30;99.90;;;;;;5055124;28;1439;-54
2021/12/21 10:42:22;;;;;;;;;;;16.70;99.90;;;;;;5057891;28;1575;-52
2021/12/21 10:45:09;;;;;;;;;;;16.80;99.90;;;;;;5053608;28;1471;-54
2021/12/21 10:47:55;;;;;;;;;;;16.90;99.90;;;;;;5057571;28;1556;-54
2021/12/21 10:50:43;;;;;;;;;;;16.80;99.90;;;;;;5057777;28;1906;-53
2021/12/21 10:53:29;;;;;;;;;;;16.70;99.90;;;;;;5057755;28;1566;-54
2021/12/21 10:56:17;;;;;;;;;;;16.70;99.90;;;;;;5057589;28;1439;-53
2021/12/21 10:59:09;;;;;;;;;;;16.50;99.90;;;;;;5057872;28;1464;-53
2021/12/21 11:02:03;;;;;;;;;;;16.30;99.90;;;;;;5057660;28;1438;-54
2021/12/21 11:04:54;;;;;;;;;;;16.30;99.90;;;;;;5053234;28;1614;-53
2021/12/21 11:07:47;;;;;;;;;;;16.30;99.90;;;;;;5057748;28;1396;-53
2021/12/21 11:10:35;;;;;;;;;;;16.30;99.90;;;;;;5057213;28;1910;-53
2021/12/21 11:13:22;;;;;;;;;;;16.30;99.90;;;;;;5056638;28;1487;-53
2021/12/21 11:16:09;;;;;;;;;;;16.30;99.90;;;;;;5057432;28;2007;-54
2021/12/21 11:18:55;;;;;;;;;;;16.30;99.90;;;;;;5057398;28;1457;-53
2021/12/21 11:21:42;;;;;;;;;;;16.30;99.90;;;;;;5057592;28;1537;-53
2021/12/21 11:24:30;;;;;;;;;;;16.30;99.90;;;;;;5070436;28;1435;-53
2021/12/21 11:27:17;;;;;;;;;;;16.30;99.90;;;;;;5056144;28;1728;-53
2021/12/21 11:30:05;;;;;;;;;;;16.30;99.90;;;;;;5042806;28;1902;-53
2021/12/21 11:32:52;;;;;;;;;;;16.30;99.90;;;;;;5068396;28;1542;-53
2021/12/21 11:38:24;;;;;;;;;;;16.40;99.90;;;;;;5057168;28;1372;-53
2021/12/21 11:41:10;;;;;;;;;;;16.50;99.90;;;;;;5055397;28;1489;-52
2021/12/21 11:44:08;;;;;;;;;;;16.60;99.90;;;;;;5057066;28;1435;-53
2021/12/21 11:46:54;;;;;;;;;;;16.60;99.90;;;;;;5054094;28;1462;-51
2021/12/21 11:49:40;;;;;;;;;;;16.70;99.90;;;;;;5052750;28;1965;-51
2021/12/21 11:52:30;;;;;;;;;;;16.70;99.90;;;;;;5055611;28;1530;-52
2021/12/21 11:54:58;;;;;;;;;;;16.80;99.90;;;;;;5055450;28;1123;-50
2021/12/21 11:57:35;;;;;;;;;;;16.90;99.90;;;;;;5056071;28;1118;-50
2021/12/21 12:00:11;;;;;;;;;;;17.00;99.90;;;;;;5055823;28;1174;-52
2021/12/21 12:02:40;;;;;;;;;;;17.10;99.90;;;;;;5053188;28;1285;-52
2021/12/21 12:05:19;;;;;;;;;;;17.20;99.90;;;;;;5052396;28;1602;-53
2021/12/21 12:07:45;;;;;;;;;;;17.40;99.90;;;;;;5037147;28;1526;-53
2021/12/21 12:10:13;;;;;;;;;;;17.50;99.90;;;;;;5059216;28;1922;-53
2021/12/21 12:12:39;;;;;;;;;;;17.50;99.90;;;;;;5057038;28;894;-53
2021/12/21 12:15:06;;;;;;;;;;;17.60;99.90;;;;;;5056264;28;1292;-52
2021/12/21 12:17:43;;;;;;;;;;;17.70;99.90;;;;;;5056428;28;1537;-53
2021/12/21 12:20:10;;;;;;;;;;;17.80;99.90;;;;;;5054009;28;1461;-53
2021/12/21 12:22:41;;;;;;;;;;;17.90;99.90;;;;;;5055947;28;1315;-53
2021/12/21 12:25:13;;;;;;;;;;;17.90;99.90;;;;;;5055440;28;1418;-53
2021/12/21 12:27:43;;;;;;;;;;;18.00;99.90;;;;;;5057419;28;1457;-53
2021/12/21 12:30:11;;;;;;;;;;;18.00;99.90;;;;;;5055737;28;1968;-53
2021/12/21 12:32:39;;;;;;;;;;;18.00;99.90;;;;;;5056064;28;1533;-53
2021/12/21 12:35:07;;;;;;;;;;;18.00;99.90;;;;;;5055689;28;1311;-53
2021/12/21 12:37:33;;;;;;;;;;;18.00;99.90;;;;;;5054752;28;1107;-52
2021/12/21 12:40:04;;;;;;;;;;;18.00;99.90;;;;;;5054783;28;1514;-52
2021/12/21 12:42:32;;;;;;;;;;;17.90;99.90;;;;;;5053870;28;1251;-57
2021/12/21 12:45:03;;;;;;;;;;;17.80;99.90;;;;;;5055240;28;1429;-53
2021/12/21 12:47:29;;;;;;;;;;;17.70;99.90;;;;;;5054516;28;1299;-53
2021/12/21 12:49:57;;;;;;;;;;;17.80;99.90;;;;;;5054907;28;1906;-53
2021/12/21 12:52:30;;;;;;;;;;;17.80;99.90;;;;;;5055524;28;1456;-53
2021/12/21 12:55:00;;;;;;;;;;;17.80;99.90;;;;;;5055638;28;1475;-53
2021/12/21 12:57:31;;;;;;;;;;;17.80;99.90;;;;;;5055293;28;1283;-53
2021/12/21 13:00:11;;;;;;;;;;;17.80;99.90;;;;;;5056091;28;933;-53
2021/12/21 13:02:37;;;;;;;;;;;17.70;99.90;;;;;;5055186;28;1085;-53
2021/12/21 13:05:08;;;;;;;;;;;17.70;99.90;;;;;;5055734;28;845;-53
2021/12/21 13:07:34;;;;;;;;;;;17.60;99.90;;;;;;5055791;28;1228;-52
2021/12/21 13:10:04;;;;;;;;;;;17.70;99.90;;;;;;5055944;28;1976;-52
2021/12/21 13:12:30;;;;;;;;;;;17.70;99.90;;;;;;5053379;28;1240;-52
2021/12/21 13:15:16;;;;;;;;;;;17.60;99.90;;;;;;5054494;28;1400;-52
2021/12/21 13:18:06;;;;;;;;;;;17.50;99.90;;;;;;5054593;28;1607;-52
2021/12/21 13:20:53;;;;;;;;;;;17.40;99.90;;;;;;5052061;28;1740;-52
2021/12/21 13:23:39;;;;;;;;;;;17.20;99.90;;;;;;5054317;28;1551;-52
2021/12/21 13:26:07;;;;;;;;;;;17.10;99.90;;;;;;5054153;28;892;-52
2021/12/21 13:28:53;;;;;;;;;;;17.00;99.90;;;;;;5054626;28;969;-52
2021/12/21 13:31:21;;;;;;;;;;;16.90;99.90;;;;;;5036469;28;1969;-52
2021/12/21 13:33:51;;;;;;;;;;;16.80;99.90;;;;;;5053801;28;929;-52
2021/12/21 13:36:17;;;;;;;;;;;16.70;99.90;;;;;;5054870;28;810;-52
2021/12/21 13:38:44;;;;;;;;;;;16.70;99.90;;;;;;5054772;28;1003;-52
2021/12/21 13:41:13;;;;;;;;;;;16.60;99.90;;;;;;5055868;28;885;-52
2021/12/21 13:43:50;;;;;;;;;;;16.50;99.90;;;;;;5055442;28;734;-52
2021/12/21 13:46:16;;;;;;;;;;;16.40;99.90;;;;;;5055459;28;876;-52
2021/12/21 13:48:49;;;;;;;;;;;16.40;99.90;;;;;;5055088;28;875;-52
2021/12/21 13:51:16;;;;;;;;;;;16.30;99.90;;;;;;5055171;28;1983;-52
2021/12/21 13:54:02;;;;;;;;;;;16.20;99.90;;;;;;5054637;28;837;-52
2021/12/21 13:56:30;;;;;;;;;;;16.20;99.90;;;;;;5053560;28;1150;-52
2021/12/21 13:58:58;;;;;;;;;;;16.10;99.90;;;;;;5055017;28;899;-52
2021/12/21 14:01:45;;;;;;;;;;;16.00;99.90;;;;;;5055461;28;955;-52
2021/12/21 14:04:13;;;;;;;;;;;16.00;99.90;;;;;;5054628;28;1002;-52
2021/12/21 14:06:39;;;;;;;;;;;16.00;99.90;;;;;;5059230;28;880;-52
2021/12/21 14:09:07;;;;;;;;;;;16.00;99.90;;;;;;5058757;28;914;-52
2021/12/21 14:11:34;;;;;;;;;;;16.00;99.90;;;;;;5058648;28;1977;-54
2021/12/21 14:14:02;;;;;;;;;;;16.00;99.90;;;;;;5056714;28;905;-52
2021/12/21 14:16:31;;;;;;;;;;;16.00;99.90;;;;;;5056986;28;833;-52
2021/12/21 14:19:00;;;;;;;;;;;16.10;99.90;;;;;;5058892;28;929;-52
2021/12/21 14:21:31;;;;;;;;;;;16.20;99.90;;;;;;5057741;28;794;-52
2021/12/21 14:24:00;;;;;;;;;;;16.20;99.90;;;;;;5059304;28;861;-52
2021/12/21 14:26:34;;;;;;;;;;;16.30;99.90;;;;;;5058634;28;875;-52
2021/12/21 14:29:08;;;;;;;;;;;16.30;99.90;;;;;;5056948;28;1066;-52
2021/12/21 14:31:48;;;;;;;;;;;16.40;99.90;;;;;;5057392;28;1914;-52
2021/12/21 14:34:34;;;;;;;;;;;16.40;99.90;;;;;;5058243;28;990;-52
2021/12/21 14:37:00;;;;;;;;;;;16.40;99.90;;;;;;5056375;28;1084;-52
2021/12/21 14:39:29;;;;;;;;;;;16.50;99.90;;;;;;5058782;28;817;-52
2021/12/21 14:41:57;;;;;;;;;;;16.50;99.90;;;;;;5040193;28;953;-52
2021/12/21 14:44:24;;;;;;;;;;;16.50;99.90;;;;;;5058110;28;1321;-52
2021/12/21 14:46:52;;;;;;;;;;;16.60;99.90;;;;;;5056974;28;979;-52
2021/12/21 14:49:40;;;;;;;;;;;16.60;99.90;;;;;;5056963;28;1006;-52
2021/12/21 14:52:17;;;;;;;;;;;16.60;99.90;;;;;;5053969;28;1914;-52
2021/12/21 14:54:51;;;;;;;;;;;16.60;99.90;;;;;;5058388;28;925;-52
2021/12/21 14:57:18;;;;;;;;;;;16.60;99.90;;;;;;5058505;28;829;-52
2021/12/21 14:59:48;;;;;;;;;;;16.60;99.90;;;;;;5058018;28;896;-52
2021/12/21 15:03:00;;;;;;;;;;;16.50;99.90;;;;;;5058380;28;919;-52
2021/12/21 15:05:03;;;;;;;;;;;16.50;99.90;;;;;;5029930;28;1374;-52
2021/12/21 15:07:30;;;;;;;;;;;16.50;99.90;;;;;;5032791;28;881;-52
2021/12/21 15:09:59;;;;;;;;;;;16.40;99.90;;;;;;5038199;28;861;-53
2021/12/21 15:12:26;;;;;;;;;;;16.40;99.90;;;;;;5037274;28;1910;-52
2021/12/21 15:14:55;;;;;;;;;;;16.30;99.90;;;;;;5015092;28;941;-52
2021/12/21 15:17:21;;;;;;;;;;;16.30;99.90;;;;;;5031686;28;826;-53
2021/12/21 15:19:49;;;;;;;;;;;16.20;99.90;;;;;;5037771;28;1024;-53
2021/12/21 15:22:16;;;;;;;;;;;16.20;99.90;;;;;;5037890;28;885;-53
2021/12/21 15:24:42;;;;;;;;;;;16.10;99.90;;;;;;5031451;28;806;-53
2021/12/21 15:27:08;;;;;;;;;;;16.10;99.90;;;;;;5037966;28;936;-53
2021/12/21 15:29:36;;;;;;;;;;;16.10;99.90;;;;;;5037543;28;919;-54
2021/12/21 15:32:04;;;;;;;;;;;16.00;99.90;;;;;;5037673;28;1918;-53
2021/12/21 15:34:32;;;;;;;;;;;16.00;99.90;;;;;;5036942;28;880;-53
2021/12/21 15:36:59;;;;;;;;;;;15.90;99.90;;;;;;5037807;28;875;-53
2021/12/21 15:39:27;;;;;;;;;;;15.90;99.90;;;;;;5037965;28;897;-53
2021/12/21 15:41:55;;;;;;;;;;;15.90;99.90;;;;;;5036937;28;828;-52
2021/12/21 15:44:29;;;;;;;;;;;15.80;99.90;;;;;;5037644;28;862;-53
2021/12/21 15:47:04;;;;;;;;;;;15.80;99.90;;;;;;5033017;28;1010;-52
2021/12/21 15:49:30;;;;;;;;;;;15.80;99.90;;;;;;5037429;28;953;-52
2021/12/21 15:51:56;;;;;;;;;;;15.70;99.90;;;;;;5036997;28;1976;-52
2021/12/21 15:54:21;;;;;;;;;;;15.70;99.90;;;;;;5037690;28;891;-52
2021/12/21 15:56:47;;;;;;;;;;;15.70;99.90;;;;;;5036667;28;928;-52
2021/12/21 15:59:13;;;;;;;;;;;15.60;99.90;;;;;;5036792;28;868;-52